Time;durP1;ratioP1;P1;durP2;ratioP2;P2;SDS_P1;SDS_P2;PMS_P1;PMS_P2;Temp;Humidity;BMP_temperature;BMP_pressure;BME280_temperature;BME280_humidity;BME280_pressure;Samples;Min_cycle;Max_cycle;Signal;HPM_P1;HPM_P2
2023/09/03 00:00:42;;;;;;;93.47;55.15;;;15.20;99.90;;;;;;5092786;28;20394;-66
2023/09/03 00:03:08;;;;;;;107.45;59.88;;;15.20;99.90;;;;;;5093752;28;20066;-66
2023/09/03 00:05:34;;;;;;;103.07;60.53;;;15.20;99.90;;;;;;5093567;28;20466;-66
2023/09/03 00:08:00;;;;;;;98.53;58.10;;;15.20;99.90;;;;;;5093661;28;20043;-66
2023/09/03 00:10:26;;;;;;;117.55;66.10;;;15.20;99.90;;;;;;5093455;28;20110;-66
2023/09/03 00:12:51;;;;;;;108.68;61.58;;;15.20;99.90;;;;;;5093613;28;20020;-66
2023/09/03 00:15:22;;;;;;;111.53;62.83;;;15.20;99.90;;;;;;5093429;28;20025;-66
2023/09/03 00:17:47;;;;;;;107.63;62.20;;;15.10;99.90;;;;;;5093231;28;20106;-66
2023/09/03 00:20:13;;;;;;;98.95;57.63;;;15.10;99.90;;;;;;5093259;28;20086;-66
2023/09/03 00:22:39;;;;;;;112.40;61.72;;;15.00;99.90;;;;;;5093653;28;20092;-66
2023/09/03 00:25:05;;;;;;;99.43;59.60;;;14.90;99.90;;;;;;5093780;28;20028;-66
2023/09/03 00:27:32;;;;;;;110.65;64.35;;;14.90;99.90;;;;;;5093577;28;20474;-76
2023/09/03 00:29:57;;;;;;;117.00;64.95;;;14.90;99.90;;;;;;5093005;28;20489;-66
2023/09/03 00:32:23;;;;;;;102.40;58.03;;;14.90;99.90;;;;;;5093804;28;20032;-66
2023/09/03 00:34:49;;;;;;;109.03;61.15;;;14.90;99.90;;;;;;5093727;28;20064;-67
2023/09/03 00:37:14;;;;;;;110.32;62.03;;;14.90;99.90;;;;;;5094584;28;20024;-66
2023/09/03 00:39:40;;;;;;;106.88;60.60;;;14.80;99.90;;;;;;5097095;28;20040;-67
2023/09/03 00:42:06;;;;;;;99.38;58.80;;;14.70;99.90;;;;;;5096637;28;20124;-66
2023/09/03 00:44:31;;;;;;;107.80;60.92;;;14.60;99.90;;;;;;5097251;28;20039;-66
2023/09/03 00:46:57;;;;;;;102.18;60.08;;;14.60;99.90;;;;;;5097304;28;20115;-66
2023/09/03 00:49:25;;;;;;;116.70;63.15;;;14.60;99.90;;;;;;5097159;28;20028;-66
2023/09/03 00:51:53;;;;;;;106.38;60.60;;;14.70;99.90;;;;;;5096754;28;20438;-66
2023/09/03 00:54:22;;;;;;;112.25;61.97;;;14.60;99.90;;;;;;5097173;28;20059;-66
2023/09/03 00:56:49;;;;;;;110.28;60.33;;;14.60;99.90;;;;;;5096841;28;20088;-66
2023/09/03 00:59:18;;;;;;;110.90;62.03;;;14.50;99.90;;;;;;5096593;28;20075;-66
2023/09/03 01:01:43;;;;;;;110.07;61.03;;;14.50;99.90;;;;;;5096473;28;20465;-66
2023/09/03 01:04:10;;;;;;;113.72;62.28;;;14.40;99.90;;;;;;5096974;28;20039;-66
2023/09/03 01:06:36;;;;;;;101.13;57.55;;;14.40;99.90;;;;;;5096331;28;20016;-66
2023/09/03 01:09:02;;;;;;;96.85;55.03;;;14.40;99.90;;;;;;5096798;28;20024;-66
2023/09/03 01:11:40;;;;;;;117.90;61.53;;;14.30;99.90;;;;;;5096379;28;20017;-66
2023/09/03 01:14:33;;;;;;;103.55;56.33;;;14.30;99.90;;;;;;5096541;28;20028;-66
2023/09/03 01:17:22;;;;;;;112.07;58.15;;;14.30;99.90;;;;;;5095893;28;20036;-66
2023/09/03 01:20:01;;;;;;;114.40;62.35;;;14.20;99.90;;;;;;5095819;28;20478;-66
2023/09/03 01:23:06;;;;;;;122.35;67.07;;;14.20;99.90;;;;;;5096277;28;20024;-67
2023/09/03 01:28:38;;;;;;;124.40;67.57;;;14.30;99.90;;;;;;5153313;27;20778;-66
2023/09/03 01:31:08;;;;;;;120.50;66.22;;;14.40;99.90;;;;;;5152368;27;20033;-67
2023/09/03 01:33:36;;;;;;;118.55;64.90;;;14.40;99.90;;;;;;5153383;27;20022;-67
2023/09/03 01:36:05;;;;;;;117.40;65.85;;;14.30;99.90;;;;;;5153272;27;20069;-67
2023/09/03 01:38:31;;;;;;;119.88;64.13;;;14.30;99.90;;;;;;5152915;27;20023;-66
2023/09/03 01:40:59;;;;;;;119.57;65.80;;;14.40;99.90;;;;;;5152928;27;20044;-66
2023/09/03 01:43:25;;;;;;;115.18;63.60;;;14.40;99.90;;;;;;5152590;27;20433;-66
2023/09/03 01:46:06;;;;;;;114.80;59.42;;;14.30;99.90;;;;;;5152765;27;20063;-66
2023/09/03 01:49:02;;;;;;;113.60;63.15;;;14.20;99.90;;;;;;5152460;27;20029;-66
2023/09/03 01:51:52;;;;;;;118.05;64.53;;;14.20;99.90;;;;;;5134410;27;20076;-66
2023/09/03 01:54:39;;;;;;;113.65;64.00;;;14.20;99.90;;;;;;5131458;27;20522;-66
2023/09/03 01:57:12;;;;;;;119.80;65.38;;;14.10;99.90;;;;;;5131689;27;20029;-66
2023/09/03 01:59:43;;;;;;;106.43;58.65;;;14.10;99.90;;;;;;5131558;27;20023;-66
2023/09/03 02:02:10;;;;;;;101.00;57.28;;;14.10;99.90;;;;;;5131390;27;20442;-66
2023/09/03 02:04:36;;;;;;;89.30;50.80;;;14.10;99.90;;;;;;5131686;27;20027;-67
2023/09/03 02:07:02;;;;;;;100.75;57.90;;;14.00;99.90;;;;;;5131611;27;20019;-66
2023/09/03 02:09:28;;;;;;;113.75;59.17;;;14.00;99.90;;;;;;5131477;27;20027;-67
2023/09/03 02:11:55;;;;;;;102.70;57.53;;;13.90;99.90;;;;;;5131537;27;20030;-66
2023/09/03 02:14:20;;;;;;;96.15;53.95;;;13.90;99.90;;;;;;5131560;27;20428;-66
2023/09/03 02:16:46;;;;;;;106.50;57.55;;;13.90;99.90;;;;;;5131488;27;20063;-66
2023/09/03 02:19:11;;;;;;;90.18;51.30;;;13.90;99.90;;;;;;5131777;27;20489;-66
2023/09/03 02:21:37;;;;;;;87.93;50.33;;;13.90;99.90;;;;;;5131542;27;20023;-66
2023/09/03 02:24:03;;;;;;;84.80;48.80;;;13.80;99.90;;;;;;5131689;27;20393;-66
2023/09/03 02:26:28;;;;;;;91.82;53.58;;;13.80;99.90;;;;;;5131198;27;20508;-66
2023/09/03 02:28:54;;;;;;;105.32;57.60;;;13.80;99.90;;;;;;5131314;27;20475;-66
2023/09/03 02:31:20;;;;;;;99.88;55.92;;;13.80;99.90;;;;;;5131505;27;20027;-66
2023/09/03 02:33:45;;;;;;;97.38;54.33;;;13.70;99.90;;;;;;5131178;27;20479;-66
2023/09/03 02:36:11;;;;;;;99.43;54.00;;;13.60;99.90;;;;;;5131243;27;20027;-65
2023/09/03 02:38:39;;;;;;;101.22;56.03;;;13.60;99.90;;;;;;5125049;27;20115;-65
2023/09/03 02:41:04;;;;;;;105.47;55.28;;;13.60;99.90;;;;;;5117544;28;20361;-65
2023/09/03 02:43:30;;;;;;;105.72;56.42;;;13.60;99.90;;;;;;5117508;28;20072;-65
2023/09/03 02:45:56;;;;;;;115.18;60.47;;;13.60;99.90;;;;;;5117570;28;20032;-65
2023/09/03 02:48:21;;;;;;;102.07;53.65;;;13.60;99.90;;;;;;5116391;28;20028;-65
2023/09/03 02:50:47;;;;;;;92.15;51.38;;;13.60;99.90;;;;;;5117150;28;20096;-65
2023/09/03 02:53:13;;;;;;;104.60;56.47;;;13.60;99.90;;;;;;5117472;28;20035;-65
2023/09/03 02:55:38;;;;;;;96.22;52.75;;;13.60;99.90;;;;;;5117216;28;20028;-65
2023/09/03 02:58:04;;;;;;;91.68;49.13;;;13.60;99.90;;;;;;5117303;28;20031;-65
2023/09/03 03:00:30;;;;;;;87.03;48.75;;;13.50;99.90;;;;;;5116915;28;20032;-65
2023/09/03 03:02:56;;;;;;;76.60;43.88;;;13.50;99.90;;;;;;5117257;28;20031;-65
2023/09/03 03:05:22;;;;;;;103.63;53.65;;;13.40;99.90;;;;;;5116526;28;20033;-65
2023/09/03 03:07:47;;;;;;;105.30;56.47;;;13.40;99.90;;;;;;5116901;28;20457;-65
2023/09/03 03:10:13;;;;;;;101.20;54.97;;;13.40;99.90;;;;;;5116533;28;20020;-65
2023/09/03 03:12:43;;;;;;;93.05;50.03;;;13.40;99.90;;;;;;5116607;28;20016;-65
2023/09/03 03:15:09;;;;;;;107.68;54.67;;;13.30;99.90;;;;;;5116474;28;20052;-65
2023/09/03 03:17:34;;;;;;;89.28;48.65;;;13.30;99.90;;;;;;5116976;28;20084;-65
2023/09/03 03:20:00;;;;;;;76.43;42.78;;;13.20;99.90;;;;;;5116823;28;20035;-65
2023/09/03 03:22:25;;;;;;;73.22;42.00;;;13.20;99.90;;;;;;5116811;28;20473;-65
2023/09/03 03:24:51;;;;;;;63.05;38.35;;;13.10;99.90;;;;;;5116223;27;20032;-65
2023/09/03 03:27:17;;;;;;;74.03;44.10;;;13.10;99.90;;;;;;5115941;28;20126;-65
2023/09/03 03:29:43;;;;;;;79.32;46.40;;;13.00;99.90;;;;;;5116293;28;20019;-65
2023/09/03 03:32:08;;;;;;;77.05;44.38;;;13.00;99.90;;;;;;5115965;28;20131;-65
2023/09/03 03:34:34;;;;;;;76.55;43.97;;;13.00;99.90;;;;;;5116608;28;20023;-65
2023/09/03 03:37:00;;;;;;;73.95;43.60;;;12.90;99.90;;;;;;5116061;28;20031;-65
2023/09/03 03:39:25;;;;;;;70.85;42.28;;;12.90;99.90;;;;;;5115983;28;20024;-65
2023/09/03 03:41:51;;;;;;;78.57;44.50;;;12.90;99.90;;;;;;5116443;28;20024;-65
2023/09/03 03:44:17;;;;;;;93.60;50.60;;;12.90;99.90;;;;;;5115975;28;20362;-65
2023/09/03 03:46:42;;;;;;;89.85;49.33;;;12.90;99.90;;;;;;5115767;28;20470;-65
2023/09/03 03:49:08;;;;;;;84.70;45.78;;;12.90;99.90;;;;;;5115780;28;20112;-65
2023/09/03 03:51:34;;;;;;;70.10;41.10;;;12.90;99.90;;;;;;5114796;28;20055;-65
2023/09/03 03:54:03;;;;;;;68.30;40.65;;;12.90;99.90;;;;;;5116195;28;20034;-65
2023/09/03 03:56:29;;;;;;;65.22;38.55;;;12.90;99.90;;;;;;5115711;28;20427;-66
2023/09/03 03:58:55;;;;;;;68.35;39.22;;;13.00;99.90;;;;;;5115739;28;20020;-65
2023/09/03 04:01:24;;;;;;;66.70;39.13;;;12.90;99.90;;;;;;5115557;28;20024;-65
2023/09/03 04:03:55;;;;;;;71.88;39.45;;;12.90;99.90;;;;;;5115514;28;20537;-65
2023/09/03 04:06:21;;;;;;;75.80;42.05;;;12.90;99.90;;;;;;5115759;28;20051;-65
2023/09/03 04:08:47;;;;;;;73.43;41.85;;;12.80;99.90;;;;;;5115931;28;20059;-65
2023/09/03 04:11:15;;;;;;;79.50;44.08;;;12.80;99.90;;;;;;5115922;27;20440;-65
2023/09/03 04:13:41;;;;;;;95.38;49.03;;;12.80;99.90;;;;;;5115891;28;20076;-65
2023/09/03 04:16:10;;;;;;;72.35;42.22;;;12.80;99.90;;;;;;5115837;28;20031;-65
2023/09/03 04:18:36;;;;;;;82.28;45.50;;;12.70;99.90;;;;;;5115266;28;20035;-65
2023/09/03 04:21:02;;;;;;;68.22;39.58;;;12.60;99.90;;;;;;5115674;28;20469;-65
2023/09/03 04:23:28;;;;;;;72.85;42.63;;;12.50;99.90;;;;;;5115666;28;20076;-65
2023/09/03 04:25:56;;;;;;;70.25;41.33;;;12.50;99.90;;;;;;5115178;28;20512;-65
2023/09/03 04:28:22;;;;;;;72.93;43.88;;;12.50;99.90;;;;;;5114362;28;20550;-65
2023/09/03 04:30:57;;;;;;;79.45;42.72;;;12.50;99.90;;;;;;5115453;28;20027;-65
2023/09/03 04:33:23;;;;;;;66.22;39.22;;;12.50;99.90;;;;;;5115518;28;20370;-65
2023/09/03 04:35:56;;;;;;;87.10;48.17;;;12.40;99.90;;;;;;5114455;28;20019;-65
2023/09/03 04:38:22;;;;;;;81.63;44.15;;;12.40;99.90;;;;;;5115178;27;20063;-65
2023/09/03 04:40:47;;;;;;;93.65;48.08;;;12.40;99.90;;;;;;5115375;28;20482;-65
2023/09/03 04:43:13;;;;;;;76.50;42.40;;;12.40;99.90;;;;;;5115273;28;20031;-65
2023/09/03 04:45:46;;;;;;;98.13;50.90;;;12.40;99.90;;;;;;5114855;28;20028;-65
2023/09/03 04:48:12;;;;;;;81.50;45.70;;;12.30;99.90;;;;;;5114982;28;20053;-65
2023/09/03 04:50:38;;;;;;;82.72;46.00;;;12.30;99.90;;;;;;5114565;28;20032;-65
2023/09/03 04:53:04;;;;;;;75.25;44.58;;;12.30;99.90;;;;;;5115085;28;20111;-65
2023/09/03 04:55:33;;;;;;;76.20;43.38;;;12.30;99.90;;;;;;5115134;28;20027;-65
2023/09/03 04:57:58;;;;;;;88.38;49.45;;;12.30;99.90;;;;;;5114848;28;20023;-65
2023/09/03 05:00:24;;;;;;;80.20;47.60;;;12.30;99.90;;;;;;5114192;28;20035;-65
2023/09/03 05:02:50;;;;;;;80.07;46.85;;;12.30;99.90;;;;;;5114696;28;20087;-66
2023/09/03 05:05:17;;;;;;;86.40;48.08;;;12.40;99.90;;;;;;5115032;28;20441;-65
2023/09/03 05:07:43;;;;;;;75.53;43.08;;;12.40;99.90;;;;;;5114129;28;20023;-66
2023/09/03 05:10:09;;;;;;;72.82;44.55;;;12.50;99.90;;;;;;5114151;28;20024;-66
2023/09/03 05:12:34;;;;;;;77.72;44.17;;;12.50;99.90;;;;;;5114420;28;20027;-65
2023/09/03 05:15:00;;;;;;;76.22;45.00;;;12.60;99.90;;;;;;5114657;28;20030;-65
2023/09/03 05:17:26;;;;;;;74.60;48.05;;;12.70;99.90;;;;;;5114409;28;20371;-65
2023/09/03 05:19:51;;;;;;;73.22;47.08;;;12.80;99.90;;;;;;5114757;28;20450;-65
2023/09/03 05:22:17;;;;;;;69.13;46.45;;;12.90;99.90;;;;;;5114294;28;20055;-65
2023/09/03 05:24:42;;;;;;;70.10;46.85;;;13.00;99.90;;;;;;5114363;28;20035;-65
2023/09/03 05:27:09;;;;;;;67.25;45.67;;;13.10;99.90;;;;;;5114045;28;20112;-65
2023/09/03 05:29:34;;;;;;;62.42;42.80;;;13.20;99.90;;;;;;5114214;28;20077;-65
2023/09/03 05:32:00;;;;;;;65.45;42.67;;;13.20;99.90;;;;;;5114674;28;20461;-65
2023/09/03 05:34:26;;;;;;;64.03;41.67;;;13.20;99.90;;;;;;5114500;28;20400;-65
2023/09/03 05:36:52;;;;;;;63.85;44.03;;;13.30;99.90;;;;;;5114560;28;20031;-65
2023/09/03 05:39:17;;;;;;;57.58;40.53;;;13.40;99.90;;;;;;5114302;28;20499;-66
2023/09/03 05:41:43;;;;;;;60.47;42.30;;;13.50;99.90;;;;;;5114244;28;20151;-66
2023/09/03 05:44:09;;;;;;;56.50;41.50;;;13.70;99.90;;;;;;5114468;28;20489;-66
2023/09/03 05:46:35;;;;;;;50.60;38.65;;;13.90;99.90;;;;;;5114058;28;20470;-67
2023/09/03 05:49:01;;;;;;;49.35;37.20;;;14.00;99.90;;;;;;5114073;28;20107;-67
2023/09/03 05:51:27;;;;;;;47.45;35.50;;;14.30;99.90;;;;;;5114168;28;20051;-67
2023/09/03 05:53:53;;;;;;;40.47;30.52;;;14.70;99.90;;;;;;5113878;28;20058;-67
2023/09/03 05:56:19;;;;;;;42.05;32.00;;;14.80;99.90;;;;;;5114340;28;20107;-66
2023/09/03 05:58:45;;;;;;;38.63;32.40;;;15.10;99.90;;;;;;5114346;28;20026;-67
2023/09/03 06:01:11;;;;;;;38.38;28.35;;;16.00;99.90;;;;;;5114086;28;20057;-67
2023/09/03 06:03:38;;;;;;;31.08;25.60;;;16.20;99.90;;;;;;5113481;28;20077;-67
2023/09/03 06:06:06;;;;;;;31.38;25.50;;;16.30;99.90;;;;;;5114379;28;20469;-67
2023/09/03 06:08:32;;;;;;;29.20;23.15;;;16.40;99.90;;;;;;5114082;28;20413;-67
2023/09/03 06:10:59;;;;;;;32.33;23.50;;;16.40;99.90;;;;;;5113912;28;20051;-68
2023/09/03 06:13:26;;;;;;;28.17;23.05;;;16.50;99.90;;;;;;5094539;28;20024;-67
2023/09/03 06:15:52;;;;;;;29.60;22.55;;;17.10;99.90;;;;;;5097288;28;20069;-67
2023/09/03 06:18:17;;;;;;;23.20;19.52;;;17.50;99.90;;;;;;5097781;28;20533;-67
2023/09/03 06:20:43;;;;;;;25.13;20.35;;;18.30;99.90;;;;;;5097302;28;20115;-67
2023/09/03 06:23:09;;;;;;;22.60;20.13;;;18.80;99.90;;;;;;5097653;28;20042;-67
2023/09/03 06:25:36;;;;;;;23.60;20.10;;;19.10;99.90;;;;;;5097604;28;20377;-67
2023/09/03 06:28:02;;;;;;;21.80;19.50;;;19.40;99.90;;;;;;5096479;28;20049;-67
2023/09/03 06:30:28;;;;;;;23.92;20.20;;;19.60;53.70;;;;;;5097156;28;20020;-67
2023/09/03 06:32:54;;;;;;;22.38;20.02;;;19.40;22.90;;;;;;5097190;28;20077;-67
2023/09/03 06:35:19;;;;;;;20.05;17.98;;;19.40;9.60;;;;;;5097408;28;20051;-67
2023/09/03 06:37:45;;;;;;;20.75;18.42;;;19.80;1.00;;;;;;5097095;28;20386;-68
2023/09/03 06:40:14;;;;;;;22.60;18.88;;;20.10;1.00;;;;;;5096772;28;20067;-67
2023/09/03 06:42:41;;;;;;;22.25;19.13;;;19.80;1.00;;;;;;5096942;28;20028;-67
2023/09/03 06:45:07;;;;;;;21.00;18.80;;;19.70;1.00;;;;;;5096594;28;20024;-67
2023/09/03 06:47:33;;;;;;;21.95;18.15;;;19.60;1.00;;;;;;5096629;28;20110;-67
2023/09/03 06:49:58;;;;;;;21.85;19.58;;;19.30;1.00;;;;;;5096406;28;20074;-67
2023/09/03 06:52:24;;;;;;;21.42;18.23;;;19.30;1.00;;;;;;5097148;28;20496;-67
2023/09/03 06:54:50;;;;;;;21.45;18.48;;;19.40;1.00;;;;;;5096714;28;20067;-67
2023/09/03 06:57:16;;;;;;;22.08;17.98;;;19.30;1.00;;;;;;5096737;28;20024;-67
2023/09/03 06:59:42;;;;;;;21.50;16.83;;;19.50;1.00;;;;;;5096940;28;20024;-67
2023/09/03 07:02:08;;;;;;;17.30;15.45;;;20.90;1.00;;;;;;5096287;28;20028;-67
2023/09/03 07:04:35;;;;;;;16.92;15.13;;;21.70;99.90;;;;;;5096582;28;20484;-67
2023/09/03 07:07:02;;;;;;;16.75;15.05;;;21.90;99.90;;;;;;5096653;28;20526;-67
2023/09/03 07:09:29;;;;;;;18.77;15.32;;;22.70;99.90;;;;;;5096450;28;20381;-67
2023/09/03 07:11:54;;;;;;;16.35;14.57;;;23.20;99.90;;;;;;5096716;28;20420;-67
2023/09/03 07:14:20;;;;;;;16.15;14.52;;;23.80;1.00;;;;;;5096302;28;20028;-68
2023/09/03 07:16:46;;;;;;;17.52;15.60;;;23.50;1.00;;;;;;5096200;28;20028;-68
2023/09/03 07:19:12;;;;;;;17.67;14.43;;;23.60;99.90;;;;;;5096073;28;20035;-68
2023/09/03 07:21:37;;;;;;;15.32;13.38;;;23.80;1.00;;;;;;5096481;28;20028;-68
2023/09/03 07:24:03;;;;;;;15.00;13.45;;;24.10;39.10;;;;;;5095478;28;20435;-68
2023/09/03 07:26:29;;;;;;;14.40;13.10;;;23.30;1.00;;;;;;5095980;28;21188;-68
2023/09/03 07:28:54;;;;;;;16.00;14.43;;;23.80;99.90;;;;;;5095229;28;20021;-68
2023/09/03 07:31:20;;;;;;;16.48;13.50;;;23.70;99.90;;;;;;5095957;28;20059;-68
2023/09/03 07:33:45;;;;;;;15.50;13.80;;;24.20;32.50;;;;;;5095564;28;20108;-68
2023/09/03 07:36:11;;;;;;;16.40;14.70;;;23.90;99.90;;;;;;5095280;28;20020;-68
2023/09/03 07:38:38;;;;;;;16.45;14.68;;;23.60;99.90;;;;;;5095884;28;20038;-68
2023/09/03 07:41:03;;;;;;;17.00;15.15;;;23.00;1.00;;;;;;5095335;28;20375;-68
2023/09/03 07:43:29;;;;;;;17.17;15.38;;;23.40;62.80;;;;;;5095668;28;20031;-68
2023/09/03 07:45:55;;;;;;;16.55;14.93;;;23.00;99.90;;;;;;5095746;28;20118;-68
2023/09/03 07:48:21;;;;;;;16.45;14.52;;;23.30;67.40;;;;;;5095627;28;20028;-68
2023/09/03 07:50:47;;;;;;;15.40;13.85;;;23.10;99.90;;;;;;5095110;28;20510;-68
2023/09/03 07:53:12;;;;;;;16.00;14.27;;;23.60;1.00;;;;;;5095746;28;20024;-68
2023/09/03 07:55:38;;;;;;;16.15;12.75;;;23.40;99.90;;;;;;5095919;28;20114;-68
2023/09/03 07:58:05;;;;;;;13.57;12.13;;;23.90;99.90;;;;;;5095745;28;20036;-68
2023/09/03 08:00:31;;;;;;;15.38;12.27;;;24.40;99.90;;;;;;5095683;28;20123;-68
2023/09/03 08:02:56;;;;;;;14.23;12.82;;;25.10;99.90;;;;;;5094829;28;20035;-68
2023/09/03 08:05:22;;;;;;;14.50;12.02;;;25.10;99.90;;;;;;5094720;28;20032;-68
2023/09/03 08:07:48;;;;;;;14.25;12.80;;;25.40;99.90;;;;;;5094863;28;20024;-68
2023/09/03 08:10:14;;;;;;;13.23;11.93;;;25.30;1.00;;;;;;5095287;28;20071;-68
2023/09/03 08:12:39;;;;;;;15.93;13.68;;;25.70;1.00;;;;;;5095287;28;20035;-68
2023/09/03 08:15:07;;;;;;;15.35;13.75;;;25.00;1.00;;;;;;5094327;28;20024;-68
2023/09/03 08:17:32;;;;;;;14.93;13.20;;;25.10;99.90;;;;;;5094750;28;20028;-68
2023/09/03 08:19:58;;;;;;;14.75;13.10;;;25.70;99.90;;;;;;5095325;28;20036;-68
2023/09/03 08:22:24;;;;;;;20.42;14.05;;;25.20;99.90;;;;;;5094656;28;20027;-68
2023/09/03 08:24:50;;;;;;;15.55;13.68;;;24.60;1.00;;;;;;5094927;28;20028;-68
2023/09/03 08:27:15;;;;;;;14.52;12.10;;;25.10;1.00;;;;;;5094527;28;20048;-68
2023/09/03 08:29:42;;;;;;;17.17;14.13;;;25.40;1.00;;;;;;5094774;28;20031;-68
2023/09/03 08:32:07;;;;;;;15.75;13.77;;;24.40;24.00;;;;;;5094626;28;20016;-68
2023/09/03 08:34:33;;;;;;;15.75;12.95;;;24.30;99.90;;;;;;5094300;28;20030;-68
2023/09/03 08:36:58;;;;;;;13.18;11.60;;;25.00;99.90;;;;;;5094122;28;20077;-68
2023/09/03 08:39:24;;;;;;;15.32;12.15;;;24.80;99.90;;;;;;5094637;28;20456;-68
2023/09/03 08:41:50;;;;;;;13.25;11.95;;;25.60;1.00;;;;;;5094933;28;20074;-69
2023/09/03 08:44:35;;;;;;;15.68;12.27;;;25.70;99.90;;;;;;5093977;28;20111;-69
2023/09/03 08:47:03;;;;;;;15.48;13.70;;;25.90;99.90;;;;;;5094335;28;20032;-69
2023/09/03 08:49:31;;;;;;;15.30;12.93;;;25.80;1.00;;;;;;5093596;28;20066;-69
2023/09/03 08:51:58;;;;;;;15.35;13.63;;;26.00;1.00;;;;;;5094517;28;20028;-69
2023/09/03 08:54:24;;;;;;;15.23;12.57;;;26.80;99.90;;;;;;5094515;28;20035;-69
2023/09/03 08:56:51;;;;;;;14.95;11.90;;;27.20;99.90;;;;;;5094264;28;20035;-69
2023/09/03 08:59:16;;;;;;;13.68;11.65;;;26.90;74.00;;;;;;5094661;28;20462;-69
2023/09/03 09:01:44;;;;;;;12.07;10.85;;;26.70;99.90;;;;;;5094603;28;20165;-68
2023/09/03 09:04:12;;;;;;;16.33;12.52;;;25.70;99.90;;;;;;5094293;28;20031;-69
2023/09/03 09:06:43;;;;;;;14.02;11.13;;;26.60;99.90;;;;;;5094520;28;20039;-69
2023/09/03 09:09:10;;;;;;;12.45;11.20;;;27.10;99.90;;;;;;5093867;28;20030;-69
2023/09/03 09:11:39;;;;;;;13.02;9.45;;;27.90;99.90;;;;;;5093640;28;20039;-69
2023/09/03 09:14:14;;;;;;;10.82;9.35;;;27.30;1.00;;;;;;5094466;28;20347;-69
2023/09/03 09:16:39;;;;;;;11.77;10.52;;;26.70;99.90;;;;;;5094398;28;20430;-69
2023/09/03 09:19:05;;;;;;;10.88;9.55;;;26.10;99.90;;;;;;5093718;28;20055;-69
2023/09/03 09:21:32;;;;;;;13.60;9.90;;;26.60;55.40;;;;;;5094365;28;20032;-69
2023/09/03 09:24:01;;;;;;;12.15;9.95;;;25.90;99.90;;;;;;5093767;28;20032;-69
2023/09/03 09:26:31;;;;;;;9.52;8.00;;;26.00;99.90;;;;;;5093915;28;20370;-69
2023/09/03 09:29:00;;;;;;;6.78;5.82;;;25.30;99.90;;;;;;5094284;28;20152;-69
2023/09/03 09:31:28;;;;;;;10.00;8.38;;;25.80;99.90;;;;;;5093591;28;20078;-69
2023/09/03 09:33:54;;;;;;;8.60;7.00;;;26.30;99.90;;;;;;5094171;28;20031;-69
2023/09/03 09:36:20;;;;;;;11.07;7.82;;;26.10;99.90;;;;;;5093568;28;20024;-69
2023/09/03 09:38:46;;;;;;;9.07;7.70;;;25.80;99.90;;;;;;5093532;28;20031;-69
2023/09/03 09:41:27;;;;;;;9.18;7.75;;;26.40;99.90;;;;;;5093971;28;20161;-70
2023/09/03 09:43:53;;;;;;;9.38;8.30;;;26.30;99.90;;;;;;5094172;28;20458;-69
2023/09/03 09:46:34;;;;;;;9.82;8.80;;;26.20;99.90;;;;;;5093864;28;20081;-69
2023/09/03 09:49:01;;;;;;;11.10;9.57;;;26.70;99.90;;;;;;5095406;28;20028;-70
2023/09/03 09:51:28;;;;;;;11.07;8.68;;;26.70;99.90;;;;;;5097531;28;20066;-70
2023/09/03 09:53:55;;;;;;;11.38;10.18;;;27.10;99.90;;;;;;5097764;28;20059;-70
2023/09/03 09:56:24;;;;;;;11.40;10.13;;;27.70;1.00;;;;;;5097715;28;20370;-70
2023/09/03 09:58:51;;;;;;;14.10;9.30;;;27.60;1.00;;;;;;5097679;28;20028;-70
2023/09/03 10:01:16;;;;;;;13.77;9.52;;;27.70;99.90;;;;;;5097704;28;20020;-70
2023/09/03 10:03:47;;;;;;;11.63;10.02;;;27.30;1.00;;;;;;5097401;28;20030;-70
2023/09/03 10:06:14;;;;;;;11.23;9.00;;;27.20;1.00;;;;;;5097416;28;20032;-70
2023/09/03 10:08:41;;;;;;;10.80;9.30;;;27.20;1.00;;;;;;5097208;28;20032;-70
2023/09/03 10:11:06;;;;;;;11.65;9.48;;;27.40;1.00;;;;;;5097322;28;20501;-70
2023/09/03 10:13:32;;;;;;;8.73;7.72;;;26.30;1.00;;;;;;5097462;28;20031;-70
2023/09/03 10:16:02;;;;;;;10.20;7.80;;;26.90;1.00;;;;;;5097551;28;20063;-70
2023/09/03 10:18:29;;;;;;;8.82;6.95;;;27.10;1.00;;;;;;5097531;28;20060;-70
2023/09/03 10:20:56;;;;;;;7.53;6.68;;;27.00;1.00;;;;;;5097444;28;20077;-70
2023/09/03 10:23:25;;;;;;;10.23;7.00;;;26.80;1.00;;;;;;5097559;28;20107;-70
2023/09/03 10:25:52;;;;;;;9.38;8.38;;;26.60;1.00;;;;;;5097492;28;20032;-70
2023/09/03 10:28:22;;;;;;;9.50;7.55;;;26.80;1.00;;;;;;5096156;28;20051;-70
2023/09/03 10:30:51;;;;;;;8.18;7.38;;;26.50;1.00;;;;;;5097143;28;20123;-70
2023/09/03 10:33:17;;;;;;;11.85;7.20;;;27.00;1.00;;;;;;5096776;28;20024;-70
2023/09/03 10:36:10;;;;;;;8.30;6.18;;;26.80;1.00;;;;;;5097384;28;20024;-70
2023/09/03 10:38:36;;;;;;;6.70;5.38;;;27.20;1.00;;;;;;5097327;28;20145;-70
2023/09/03 10:41:21;;;;;;;7.97;6.70;;;28.60;1.00;;;;;;5097285;28;20133;-70
2023/09/03 10:43:48;;;;;;;9.95;7.68;;;28.60;1.00;;;;;;5096982;28;20073;-70
2023/09/03 10:46:14;;;;;;;8.10;7.32;;;27.10;99.90;;;;;;5096789;28;20043;-70
2023/09/03 10:48:39;;;;;;;8.68;7.60;;;26.80;1.00;;;;;;5096842;28;20462;-70
2023/09/03 10:51:05;;;;;;;8.73;7.20;;;25.80;1.00;;;;;;5096508;28;20047;-70
2023/09/03 10:53:39;;;;;;;9.30;6.65;;;25.70;1.00;;;;;;5096411;28;20024;-70
2023/09/03 10:56:09;;;;;;;10.98;7.75;;;25.30;1.00;;;;;;5096731;28;20021;-71
2023/09/03 10:58:35;;;;;;;8.15;6.82;;;25.30;1.00;;;;;;5096858;28;20028;-69
2023/09/03 11:01:18;;;;;;;8.43;6.82;;;25.50;1.00;;;;;;5096346;28;20026;-70
2023/09/03 11:03:46;;;;;;;11.70;7.03;;;25.70;99.90;;;;;;5095812;28;20064;-70
2023/09/03 11:06:24;;;;;;;8.57;7.25;;;25.40;99.90;;;;;;5096771;28;20548;-70
2023/09/03 11:11:42;;;;;;;12.65;8.27;;;25.10;99.90;;;;;;5071426;28;20409;-70
2023/09/03 11:14:10;;;;;;;10.00;8.50;;;24.50;72.40;;;;;;5071281;28;20044;-70
2023/09/03 11:16:37;;;;;;;11.98;8.68;;;24.00;99.90;;;;;;5071135;28;20033;-70
2023/09/03 11:19:06;;;;;;;12.02;8.82;;;23.70;1.00;;;;;;5070503;28;20039;-70
2023/09/03 11:21:32;;;;;;;10.52;8.32;;;23.60;53.50;;;;;;5070517;28;20115;-70
2023/09/03 11:24:05;;;;;;;7.22;6.50;;;24.10;41.60;;;;;;5071141;28;20067;-70
2023/09/03 11:26:33;;;;;;;9.40;6.43;;;24.40;99.90;;;;;;5070000;28;20074;-70
2023/09/03 11:29:00;;;;;;;11.35;7.00;;;24.80;99.90;;;;;;5070897;28;20075;-70
2023/09/03 11:31:27;;;;;;;10.57;5.88;;;24.90;99.90;;;;;;5070650;28;20035;-71
2023/09/03 11:33:52;;;;;;;8.27;5.53;;;25.00;1.00;;;;;;5070974;28;20462;-71
2023/09/03 11:36:24;;;;;;;6.35;5.30;;;25.20;99.90;;;;;;5070762;28;20028;-71
2023/09/03 11:38:51;;;;;;;6.97;5.65;;;25.30;1.00;;;;;;5071088;28;20371;-71
2023/09/03 11:41:18;;;;;;;7.55;5.10;;;25.30;99.90;;;;;;5070588;28;20154;-72
2023/09/03 11:43:46;;;;;;;7.28;4.65;;;25.30;1.00;;;;;;5070957;28;20115;-71
2023/09/03 11:46:14;;;;;;;7.95;5.35;;;25.50;99.90;;;;;;5070373;28;20021;-71
2023/09/03 11:48:40;;;;;;;8.40;6.70;;;25.10;99.90;;;;;;5070575;28;20056;-71
2023/09/03 11:51:06;;;;;;;8.07;6.25;;;24.60;99.90;;;;;;5070275;28;20029;-71
2023/09/03 11:53:41;;;;;;;6.80;5.05;;;24.60;1.00;;;;;;5070534;28;20108;-71
2023/09/03 11:56:09;;;;;;;6.95;6.25;;;24.50;99.90;;;;;;5069582;28;20025;-71
2023/09/03 11:58:36;;;;;;;5.85;5.25;;;24.70;99.90;;;;;;5069831;28;20029;-71
2023/09/03 12:01:02;;;;;;;9.50;5.30;;;24.60;1.00;;;;;;5070417;28;20076;-71
2023/09/03 12:03:28;;;;;;;8.85;4.63;;;24.70;99.90;;;;;;5070217;28;20048;-71
2023/09/03 12:05:53;;;;;;;7.18;5.25;;;24.30;99.90;;;;;;5069628;28;20025;-71
2023/09/03 12:08:19;;;;;;;4.95;4.45;;;24.50;27.10;;;;;;5069736;28;20029;-71
2023/09/03 12:10:49;;;;;;;7.03;4.50;;;24.60;99.90;;;;;;5069279;28;20069;-71
2023/09/03 12:13:33;;;;;;;7.88;4.85;;;25.00;99.90;;;;;;5070151;28;20047;-71
2023/09/03 12:16:05;;;;;;;5.57;4.70;;;25.10;99.90;;;;;;5070230;28;20024;-71
2023/09/03 12:18:32;;;;;;;5.47;4.57;;;25.30;6.40;;;;;;5069917;28;20035;-71
2023/09/03 12:20:57;;;;;;;6.65;4.22;;;25.50;99.60;;;;;;5068448;28;20079;-71
2023/09/03 12:23:23;;;;;;;4.70;3.88;;;25.60;99.90;;;;;;5056435;28;20418;-71
2023/09/03 12:25:48;;;;;;;5.28;3.70;;;25.40;99.90;;;;;;5056945;28;20029;-71
2023/09/03 12:28:15;;;;;;;6.15;3.30;;;25.20;1.00;;;;;;5056579;28;20033;-71
2023/09/03 12:30:59;;;;;;;4.15;3.10;;;25.30;99.90;;;;;;5056368;28;20035;-72
2023/09/03 12:33:42;;;;;;;4.18;2.90;;;25.20;72.30;;;;;;5056493;28;20142;-71
2023/09/03 12:36:11;;;;;;;3.78;2.80;;;25.10;43.80;;;;;;5056496;28;20024;-71
2023/09/03 12:38:55;;;;;;;9.13;2.90;;;25.10;1.00;;;;;;5056262;28;20029;-71